KEVW/EVW METAR and TAF weather

Enter ICAO airport designator
Station Type Date Time Source
KEVW METAR 2022/11/30 15:53 UTC NOAA

KEVW 301553Z AUTO 13005KT 10SM FEW080 M08/M15 A2998 RMK AO2 SLP212 T10781150


Station Type Date Time Source
KEVW Decoded METAR 2022/11/30 15:53 UTC NOAA

EVANSTON-UINTA COUNTY FIELD, WY, United States (KEVW) 41-16N 111-02W 2177M
Nov 30, 2022 - 10:53 AM EST / 2022.11.30 1553 UTC
Wind: from the SE (130 degrees) at 6 MPH (5 KT):0
Visibility: 10 mile(s):0
Sky conditions: mostly clear
Temperature: 18.0 F (-7.8 C)
Windchill: 10 F (-12 C):1
Dew Point: 5.0 F (-15.0 C)
Relative Humidity: 56%
Pressure (altimeter): 29.98 in. Hg (1015 hPa)
ob: KEVW 301553Z AUTO 13005KT 10SM FEW080 M08/M15 A2998 RMK AO2 SLP212 T10781150
cycle: 16

Station Type Date Time Source
KEVW TAF 2022/11/30 12:24 UTC NOAA

TAF KEVW 301120Z 3012/0112 24007KT P6SM BKN060
FM302000 22015G25KT P6SM FEW010 FEW100
FM010200 15010KT P6SM FEW010 FEW100

Example: see airport list